sensor_id;sensor_type;location;lat;lon;timestamp;pressure;altitude;pressure_sealevel;temperature
73937;BMP180;59249;59.736;30.568;2023-04-01T00:02:20;99901.00;;;0.50
73937;BMP180;59249;59.736;30.568;2023-04-01T00:04:49;99891.00;;;0.40
73937;BMP180;59249;59.736;30.568;2023-04-01T00:07:18;99897.00;;;0.40
73937;BMP180;59249;59.736;30.568;2023-04-01T00:09:47;99895.00;;;0.40
73937;BMP180;59249;59.736;30.568;2023-04-01T00:12:18;99885.00;;;0.50
73937;BMP180;59249;59.736;30.568;2023-04-01T00:14:47;99888.00;;;0.50
73937;BMP180;59249;59.736;30.568;2023-04-01T00:17:15;99891.00;;;0.50
73937;BMP180;59249;59.736;30.568;2023-04-01T00:19:45;99901.00;;;0.40
73937;BMP180;59249;59.736;30.568;2023-04-01T00:22:14;99885.00;;;0.40
73937;BMP180;59249;59.736;30.568;2023-04-01T00:24:42;99881.00;;;0.50
73937;BMP180;59249;59.736;30.568;2023-04-01T00:27:11;99885.00;;;0.50
73937;BMP180;59249;59.736;30.568;2023-04-01T00:29:43;99901.00;;;0.50
73937;BMP180;59249;59.736;30.568;2023-04-01T00:32:12;99887.00;;;0.40
73937;BMP180;59249;59.736;30.568;2023-04-01T00:34:42;99874.00;;;0.40
73937;BMP180;59249;59.736;30.568;2023-04-01T00:37:11;99875.00;;;0.50
73937;BMP180;59249;59.736;30.568;2023-04-01T00:39:40;99884.00;;;0.50
73937;BMP180;59249;59.736;30.568;2023-04-01T00:42:10;99876.00;;;0.40
73937;BMP180;59249;59.736;30.568;2023-04-01T00:44:40;99883.00;;;0.40
73937;BMP180;59249;59.736;30.568;2023-04-01T00:47:10;99878.00;;;0.40
73937;BMP180;59249;59.736;30.568;2023-04-01T00:49:42;99880.00;;;0.40
73937;BMP180;59249;59.736;30.568;2023-04-01T00:52:17;99882.00;;;0.50
73937;BMP180;59249;59.736;30.568;2023-04-01T00:54:53;99886.00;;;0.50
73937;BMP180;59249;59.736;30.568;2023-04-01T00:57:28;99882.00;;;0.50
73937;BMP180;59249;59.736;30.568;2023-04-01T01:00:01;99871.00;;;0.50
73937;BMP180;59249;59.736;30.568;2023-04-01T01:02:34;99870.00;;;0.50
73937;BMP180;59249;59.736;30.568;2023-04-01T01:05:05;99873.00;;;0.50
73937;BMP180;59249;59.736;30.568;2023-04-01T01:07:40;99872.00;;;0.50
73937;BMP180;59249;59.736;30.568;2023-04-01T01:10:15;99869.00;;;0.50
73937;BMP180;59249;59.736;30.568;2023-04-01T01:12:52;99879.00;;;0.50
73937;BMP180;59249;59.736;30.568;2023-04-01T01:15:33;99878.00;;;0.40
73937;BMP180;59249;59.736;30.568;2023-04-01T01:18:18;99866.00;;;0.40
73937;BMP180;59249;59.736;30.568;2023-04-01T01:21:28;99861.00;;;0.40
73937;BMP180;59249;59.736;30.568;2023-04-01T01:24:22;99864.00;;;0.40
73937;BMP180;59249;59.736;30.568;2023-04-01T01:27:10;99874.00;;;0.40
73937;BMP180;59249;59.736;30.568;2023-04-01T01:29:58;99869.00;;;0.40
73937;BMP180;59249;59.736;30.568;2023-04-01T01:36:21;99859.00;;;0.40
73937;BMP180;59249;59.736;30.568;2023-04-01T01:38:51;99876.00;;;0.50
73937;BMP180;59249;59.736;30.568;2023-04-01T01:41:22;99870.00;;;0.30
73937;BMP180;59249;59.736;30.568;2023-04-01T01:43:54;99870.00;;;0.40
73937;BMP180;59249;59.736;30.568;2023-04-01T01:46:27;99872.00;;;0.40
73937;BMP180;59249;59.736;30.568;2023-04-01T01:49:00;99871.00;;;0.40
73937;BMP180;59249;59.736;30.568;2023-04-01T01:51:33;99866.00;;;0.40
73937;BMP180;59249;59.736;30.568;2023-04-01T01:54:04;99880.00;;;0.40
73937;BMP180;59249;59.736;30.568;2023-04-01T01:56:34;99874.00;;;0.30
73937;BMP180;59249;59.736;30.568;2023-04-01T01:59:06;99873.00;;;0.40
73937;BMP180;59249;59.736;30.568;2023-04-01T02:01:42;99875.00;;;0.30
73937;BMP180;59249;59.736;30.568;2023-04-01T02:04:14;99871.00;;;0.40
73937;BMP180;59249;59.736;30.568;2023-04-01T02:06:51;99874.00;;;0.40
73937;BMP180;59249;59.736;30.568;2023-04-01T02:09:23;99872.00;;;0.30
73937;BMP180;59249;59.736;30.568;2023-04-01T02:11:57;99867.00;;;0.30
73937;BMP180;59249;59.736;30.568;2023-04-01T02:14:40;99867.00;;;0.30
73937;BMP180;59249;59.736;30.568;2023-04-01T02:17:14;99876.00;;;0.30
73937;BMP180;59249;59.736;30.568;2023-04-01T02:19:48;99869.00;;;0.30
73937;BMP180;59249;59.736;30.568;2023-04-01T02:22:28;99870.00;;;0.30
73937;BMP180;59249;59.736;30.568;2023-04-01T02:24:59;99868.00;;;0.30
73937;BMP180;59249;59.736;30.568;2023-04-01T02:27:31;99874.00;;;0.30
73937;BMP180;59249;59.736;30.568;2023-04-01T02:30:00;99869.00;;;0.30
73937;BMP180;59249;59.736;30.568;2023-04-01T02:32:31;99869.00;;;0.40
73937;BMP180;59249;59.736;30.568;2023-04-01T02:35:06;99866.00;;;0.30
73937;BMP180;59249;59.736;30.568;2023-04-01T02:37:39;99864.00;;;0.40
73937;BMP180;59249;59.736;30.568;2023-04-01T02:40:12;99872.00;;;0.30
73937;BMP180;59249;59.736;30.568;2023-04-01T02:42:42;99865.00;;;0.20
73937;BMP180;59249;59.736;30.568;2023-04-01T02:45:12;99865.00;;;0.30
73937;BMP180;59249;59.736;30.568;2023-04-01T02:47:42;99868.00;;;0.30
73937;BMP180;59249;59.736;30.568;2023-04-01T02:50:12;99869.00;;;0.30
73937;BMP180;59249;59.736;30.568;2023-04-01T02:52:41;99872.00;;;0.20
73937;BMP180;59249;59.736;30.568;2023-04-01T02:55:11;99871.00;;;0.30
73937;BMP180;59249;59.736;30.568;2023-04-01T02:57:40;99882.00;;;0.40
73937;BMP180;59249;59.736;30.568;2023-04-01T03:00:09;99877.00;;;0.30
73937;BMP180;59249;59.736;30.568;2023-04-01T03:02:39;99878.00;;;0.40
73937;BMP180;59249;59.736;30.568;2023-04-01T03:05:11;99875.00;;;0.30
73937;BMP180;59249;59.736;30.568;2023-04-01T03:07:39;99874.00;;;0.30
73937;BMP180;59249;59.736;30.568;2023-04-01T03:10:10;99872.00;;;0.30
73937;BMP180;59249;59.736;30.568;2023-04-01T03:12:39;99882.00;;;0.30
73937;BMP180;59249;59.736;30.568;2023-04-01T03:15:11;99878.00;;;0.20
73937;BMP180;59249;59.736;30.568;2023-04-01T03:17:42;99877.00;;;0.30
73937;BMP180;59249;59.736;30.568;2023-04-01T03:20:12;99881.00;;;0.20
73937;BMP180;59249;59.736;30.568;2023-04-01T03:22:44;99885.00;;;0.20
73937;BMP180;59249;59.736;30.568;2023-04-01T03:25:14;99891.00;;;0.20
73937;BMP180;59249;59.736;30.568;2023-04-01T03:27:43;99878.00;;;0.10
73937;BMP180;59249;59.736;30.568;2023-04-01T03:30:13;99882.00;;;0.20
73937;BMP180;59249;59.736;30.568;2023-04-01T03:32:48;99888.00;;;0.30
73937;BMP180;59249;59.736;30.568;2023-04-01T03:35:17;99896.00;;;0.30
73937;BMP180;59249;59.736;30.568;2023-04-01T03:37:48;99888.00;;;0.20
73937;BMP180;59249;59.736;30.568;2023-04-01T03:40:19;99893.00;;;0.30
73937;BMP180;59249;59.736;30.568;2023-04-01T03:42:49;99882.00;;;0.30
73937;BMP180;59249;59.736;30.568;2023-04-01T03:45:19;99895.00;;;0.30
73937;BMP180;59249;59.736;30.568;2023-04-01T03:47:48;99890.00;;;0.40
73937;BMP180;59249;59.736;30.568;2023-04-01T03:50:18;99897.00;;;0.40
73937;BMP180;59249;59.736;30.568;2023-04-01T03:52:48;99897.00;;;0.30
73937;BMP180;59249;59.736;30.568;2023-04-01T03:55:19;99901.00;;;0.30
73937;BMP180;59249;59.736;30.568;2023-04-01T03:57:49;99901.00;;;0.40
73937;BMP180;59249;59.736;30.568;2023-04-01T04:00:19;99902.00;;;0.30
73937;BMP180;59249;59.736;30.568;2023-04-01T04:02:53;99898.00;;;0.40
73937;BMP180;59249;59.736;30.568;2023-04-01T04:05:28;99896.00;;;0.40
73937;BMP180;59249;59.736;30.568;2023-04-01T04:08:00;99905.00;;;0.30
73937;BMP180;59249;59.736;30.568;2023-04-01T04:10:30;99912.00;;;0.40
73937;BMP180;59249;59.736;30.568;2023-04-01T04:13:00;99906.00;;;0.30
73937;BMP180;59249;59.736;30.568;2023-04-01T04:15:31;99896.00;;;0.40
73937;BMP180;59249;59.736;30.568;2023-04-01T04:18:00;99907.00;;;0.40
73937;BMP180;59249;59.736;30.568;2023-04-01T04:20:29;99910.00;;;0.40
73937;BMP180;59249;59.736;30.568;2023-04-01T04:23:00;99914.00;;;0.40
73937;BMP180;59249;59.736;30.568;2023-04-01T04:25:29;99916.00;;;0.40
73937;BMP180;59249;59.736;30.568;2023-04-01T04:28:00;99910.00;;;0.50
73937;BMP180;59249;59.736;30.568;2023-04-01T04:30:29;99908.00;;;0.50
73937;BMP180;59249;59.736;30.568;2023-04-01T04:32:58;99909.00;;;0.30
73937;BMP180;59249;59.736;30.568;2023-04-01T04:35:26;99909.00;;;0.40
73937;BMP180;59249;59.736;30.568;2023-04-01T04:37:55;99914.00;;;0.50
73937;BMP180;59249;59.736;30.568;2023-04-01T04:40:25;99915.00;;;0.50
73937;BMP180;59249;59.736;30.568;2023-04-01T04:42:55;99918.00;;;0.60
73937;BMP180;59249;59.736;30.568;2023-04-01T04:45:24;99917.00;;;0.60
73937;BMP180;59249;59.736;30.568;2023-04-01T04:47:55;99923.00;;;0.50
73937;BMP180;59249;59.736;30.568;2023-04-01T04:50:25;99921.00;;;0.70
73937;BMP180;59249;59.736;30.568;2023-04-01T04:52:55;99921.00;;;0.60
73937;BMP180;59249;59.736;30.568;2023-04-01T04:55:31;99924.00;;;0.60
73937;BMP180;59249;59.736;30.568;2023-04-01T04:58:20;99924.00;;;0.60
73937;BMP180;59249;59.736;30.568;2023-04-01T05:00:50;99926.00;;;0.60
73937;BMP180;59249;59.736;30.568;2023-04-01T05:03:28;99929.00;;;0.70
73937;BMP180;59249;59.736;30.568;2023-04-01T05:05:59;99922.00;;;0.60
73937;BMP180;59249;59.736;30.568;2023-04-01T05:08:29;99926.00;;;0.70
73937;BMP180;59249;59.736;30.568;2023-04-01T05:11:03;99927.00;;;0.70
73937;BMP180;59249;59.736;30.568;2023-04-01T05:13:41;99926.00;;;0.70
73937;BMP180;59249;59.736;30.568;2023-04-01T05:16:13;99929.00;;;0.70
73937;BMP180;59249;59.736;30.568;2023-04-01T05:18:43;99924.00;;;0.80
73937;BMP180;59249;59.736;30.568;2023-04-01T05:21:15;99921.00;;;0.80
73937;BMP180;59249;59.736;30.568;2023-04-01T05:24:02;99928.00;;;0.80
73937;BMP180;59249;59.736;30.568;2023-04-01T05:26:33;99921.00;;;0.90
73937;BMP180;59249;59.736;30.568;2023-04-01T05:29:02;99921.00;;;1.00
73937;BMP180;59249;59.736;30.568;2023-04-01T05:31:32;99927.00;;;1.10
73937;BMP180;59249;59.736;30.568;2023-04-01T05:34:03;99926.00;;;1.10
73937;BMP180;59249;59.736;30.568;2023-04-01T05:36:33;99942.00;;;1.20
73937;BMP180;59249;59.736;30.568;2023-04-01T05:39:03;99932.00;;;1.20
73937;BMP180;59249;59.736;30.568;2023-04-01T05:41:34;99937.00;;;1.30
73937;BMP180;59249;59.736;30.568;2023-04-01T05:44:04;99934.00;;;1.40
73937;BMP180;59249;59.736;30.568;2023-04-01T05:46:43;99933.00;;;1.40
73937;BMP180;59249;59.736;30.568;2023-04-01T05:49:20;99933.00;;;1.30
73937;BMP180;59249;59.736;30.568;2023-04-01T05:51:50;99945.00;;;1.40
73937;BMP180;59249;59.736;30.568;2023-04-01T05:54:22;99946.00;;;1.50
73937;BMP180;59249;59.736;30.568;2023-04-01T05:57:04;99940.00;;;1.50
73937;BMP180;59249;59.736;30.568;2023-04-01T05:59:35;99947.00;;;1.50
73937;BMP180;59249;59.736;30.568;2023-04-01T06:02:05;99949.00;;;1.50
73937;BMP180;59249;59.736;30.568;2023-04-01T06:04:47;99939.00;;;1.50
73937;BMP180;59249;59.736;30.568;2023-04-01T06:07:18;99947.00;;;1.50
73937;BMP180;59249;59.736;30.568;2023-04-01T06:09:47;99942.00;;;1.50
73937;BMP180;59249;59.736;30.568;2023-04-01T06:12:40;99944.00;;;1.50
73937;BMP180;59249;59.736;30.568;2023-04-01T06:15:25;99944.00;;;1.60
73937;BMP180;59249;59.736;30.568;2023-04-01T06:18:45;99951.00;;;1.50
73937;BMP180;59249;59.736;30.568;2023-04-01T06:22:20;99952.00;;;1.60
73937;BMP180;59249;59.736;30.568;2023-04-01T06:25:30;99958.00;;;1.40
73937;BMP180;59249;59.736;30.568;2023-04-01T06:35:53;99963.00;;;1.40
73937;BMP180;59249;59.736;30.568;2023-04-01T06:42:13;99967.00;;;1.60
73937;BMP180;59249;59.736;30.568;2023-04-01T06:45:03;99968.00;;;1.60
73937;BMP180;59249;59.736;30.568;2023-04-01T06:48:24;99968.00;;;1.80
73937;BMP180;59249;59.736;30.568;2023-04-01T06:51:40;99971.00;;;1.90
73937;BMP180;59249;59.736;30.568;2023-04-01T06:54:55;99970.00;;;1.90
73937;BMP180;59249;59.736;30.568;2023-04-01T06:57:49;99973.00;;;2.00
73937;BMP180;59249;59.736;30.568;2023-04-01T07:00:25;99971.00;;;2.10
73937;BMP180;59249;59.736;30.568;2023-04-01T07:03:05;99970.00;;;2.00
73937;BMP180;59249;59.736;30.568;2023-04-01T07:05:43;99974.00;;;2.10
73937;BMP180;59249;59.736;30.568;2023-04-01T07:08:20;99968.00;;;2.20
73937;BMP180;59249;59.736;30.568;2023-04-01T07:10:57;99980.00;;;2.30
73937;BMP180;59249;59.736;30.568;2023-04-01T07:13:54;99972.00;;;2.40
73937;BMP180;59249;59.736;30.568;2023-04-01T07:16:32;99981.00;;;2.20
73937;BMP180;59249;59.736;30.568;2023-04-01T07:19:15;99986.00;;;2.20
73937;BMP180;59249;59.736;30.568;2023-04-01T07:22:03;99983.00;;;2.30
73937;BMP180;59249;59.736;30.568;2023-04-01T07:25:03;99999.00;;;2.40
73937;BMP180;59249;59.736;30.568;2023-04-01T07:28:01;100001.00;;;2.50
73937;BMP180;59249;59.736;30.568;2023-04-01T07:30:52;99997.00;;;2.40
73937;BMP180;59249;59.736;30.568;2023-04-01T07:33:39;100003.00;;;2.50
73937;BMP180;59249;59.736;30.568;2023-04-01T07:36:28;99999.00;;;2.60
73937;BMP180;59249;59.736;30.568;2023-04-01T07:39:26;100010.00;;;2.70
73937;BMP180;59249;59.736;30.568;2023-04-01T07:42:24;100007.00;;;2.80
73937;BMP180;59249;59.736;30.568;2023-04-01T07:45:11;100004.00;;;2.80
73937;BMP180;59249;59.736;30.568;2023-04-01T07:48:04;100006.00;;;2.80
73937;BMP180;59249;59.736;30.568;2023-04-01T07:50:50;100005.00;;;2.90
73937;BMP180;59249;59.736;30.568;2023-04-01T07:53:31;100009.00;;;3.20
73937;BMP180;59249;59.736;30.568;2023-04-01T07:56:10;100009.00;;;3.30
73937;BMP180;59249;59.736;30.568;2023-04-01T07:58:53;100015.00;;;3.40
73937;BMP180;59249;59.736;30.568;2023-04-01T08:02:02;100010.00;;;3.30
73937;BMP180;59249;59.736;30.568;2023-04-01T08:05:00;100008.00;;;3.20
73937;BMP180;59249;59.736;30.568;2023-04-01T08:07:48;100015.00;;;3.50
73937;BMP180;59249;59.736;30.568;2023-04-01T08:10:51;100015.00;;;3.40
73937;BMP180;59249;59.736;30.568;2023-04-01T08:13:51;100026.00;;;3.20
73937;BMP180;59249;59.736;30.568;2023-04-01T08:16:58;100030.00;;;3.20
73937;BMP180;59249;59.736;30.568;2023-04-01T08:19:52;100027.00;;;3.30
73937;BMP180;59249;59.736;30.568;2023-04-01T08:22:41;100025.00;;;3.30
73937;BMP180;59249;59.736;30.568;2023-04-01T08:25:27;100017.00;;;3.30
73937;BMP180;59249;59.736;30.568;2023-04-01T08:28:08;100023.00;;;3.40
73937;BMP180;59249;59.736;30.568;2023-04-01T08:30:48;100032.00;;;3.40
73937;BMP180;59249;59.736;30.568;2023-04-01T08:33:44;100023.00;;;3.50
73937;BMP180;59249;59.736;30.568;2023-04-01T08:36:21;100032.00;;;3.40
73937;BMP180;59249;59.736;30.568;2023-04-01T08:39:25;100025.00;;;3.50
73937;BMP180;59249;59.736;30.568;2023-04-01T08:42:27;100030.00;;;3.50
73937;BMP180;59249;59.736;30.568;2023-04-01T08:45:47;100037.00;;;3.50
73937;BMP180;59249;59.736;30.568;2023-04-01T08:48:55;100044.00;;;3.50
73937;BMP180;59249;59.736;30.568;2023-04-01T08:59:04;100041.00;;;3.50
73937;BMP180;59249;59.736;30.568;2023-04-01T09:05:35;100058.00;;;3.40
73937;BMP180;59249;59.736;30.568;2023-04-01T09:08:28;100052.00;;;3.30
73937;BMP180;59249;59.736;30.568;2023-04-01T09:11:28;100054.00;;;3.10
73937;BMP180;59249;59.736;30.568;2023-04-01T09:14:39;100058.00;;;3.30
73937;BMP180;59249;59.736;30.568;2023-04-01T09:17:52;100066.00;;;3.20
73937;BMP180;59249;59.736;30.568;2023-04-01T09:24:26;100080.00;;;3.40
73937;BMP180;59249;59.736;30.568;2023-04-01T09:27:35;100081.00;;;3.40
73937;BMP180;59249;59.736;30.568;2023-04-01T09:30:48;100077.00;;;3.20
73937;BMP180;59249;59.736;30.568;2023-04-01T09:37:52;100078.00;;;2.80
73937;BMP180;59249;59.736;30.568;2023-04-01T09:40:54;100088.00;;;2.90
73937;BMP180;59249;59.736;30.568;2023-04-01T09:44:09;100084.00;;;2.80
73937;BMP180;59249;59.736;30.568;2023-04-01T09:47:22;100089.00;;;2.80
73937;BMP180;59249;59.736;30.568;2023-04-01T09:54:01;100084.00;;;2.60
73937;BMP180;59249;59.736;30.568;2023-04-01T09:57:16;100086.00;;;2.80
73937;BMP180;59249;59.736;30.568;2023-04-01T10:01:12;100091.00;;;2.70
73937;BMP180;59249;59.736;30.568;2023-04-01T10:11:50;100101.00;;;2.50
73937;BMP180;59249;59.736;30.568;2023-04-01T10:22:22;100112.00;;;2.40
73937;BMP180;59249;59.736;30.568;2023-04-01T10:25:29;100110.00;;;2.50
73937;BMP180;59249;59.736;30.568;2023-04-01T10:36:15;100111.00;;;2.80
73937;BMP180;59249;59.736;30.568;2023-04-01T10:43:22;100119.00;;;3.00
73937;BMP180;59249;59.736;30.568;2023-04-01T10:46:44;100124.00;;;3.10
73937;BMP180;59249;59.736;30.568;2023-04-01T10:56:55;100134.00;;;3.00
73937;BMP180;59249;59.736;30.568;2023-04-01T11:00:34;100149.00;;;3.10
73937;BMP180;59249;59.736;30.568;2023-04-01T11:04:37;100144.00;;;3.00
73937;BMP180;59249;59.736;30.568;2023-04-01T11:08:23;100152.00;;;3.00
73937;BMP180;59249;59.736;30.568;2023-04-01T11:19:22;100149.00;;;3.10
73937;BMP180;59249;59.736;30.568;2023-04-01T11:25:49;100162.00;;;3.20
73937;BMP180;59249;59.736;30.568;2023-04-01T11:32:25;100160.00;;;3.20
73937;BMP180;59249;59.736;30.568;2023-04-01T11:39:03;100163.00;;;3.30
73937;BMP180;59249;59.736;30.568;2023-04-01T11:42:18;100157.00;;;3.50
73937;BMP180;59249;59.736;30.568;2023-04-01T11:45:30;100157.00;;;3.40
73937;BMP180;59249;59.736;30.568;2023-04-01T11:48:23;100157.00;;;3.50
73937;BMP180;59249;59.736;30.568;2023-04-01T11:51:21;100168.00;;;3.30
73937;BMP180;59249;59.736;30.568;2023-04-01T11:54:28;100170.00;;;3.40
73937;BMP180;59249;59.736;30.568;2023-04-01T12:00:48;100162.00;;;3.50
73937;BMP180;59249;59.736;30.568;2023-04-01T12:04:11;100177.00;;;3.50
73937;BMP180;59249;59.736;30.568;2023-04-01T12:07:19;100174.00;;;3.30
73937;BMP180;59249;59.736;30.568;2023-04-01T12:10:15;100178.00;;;3.10
73937;BMP180;59249;59.736;30.568;2023-04-01T12:12:57;100179.00;;;3.20
73937;BMP180;59249;59.736;30.568;2023-04-01T12:15:52;100173.00;;;3.20
73937;BMP180;59249;59.736;30.568;2023-04-01T12:18:35;100173.00;;;3.10
73937;BMP180;59249;59.736;30.568;2023-04-01T12:21:25;100176.00;;;3.10
73937;BMP180;59249;59.736;30.568;2023-04-01T12:24:20;100179.00;;;3.00
73937;BMP180;59249;59.736;30.568;2023-04-01T12:27:15;100189.00;;;2.90
73937;BMP180;59249;59.736;30.568;2023-04-01T12:33:32;100192.00;;;3.10
73937;BMP180;59249;59.736;30.568;2023-04-01T12:36:43;100188.00;;;3.20
73937;BMP180;59249;59.736;30.568;2023-04-01T12:39:50;100190.00;;;3.00
73937;BMP180;59249;59.736;30.568;2023-04-01T12:42:41;100190.00;;;3.00
73937;BMP180;59249;59.736;30.568;2023-04-01T12:45:30;100187.00;;;2.90
73937;BMP180;59249;59.736;30.568;2023-04-01T12:48:20;100206.00;;;2.90
73937;BMP180;59249;59.736;30.568;2023-04-01T12:51:24;100193.00;;;2.80
73937;BMP180;59249;59.736;30.568;2023-04-01T12:54:18;100196.00;;;2.70
73937;BMP180;59249;59.736;30.568;2023-04-01T12:57:21;100201.00;;;2.60
73937;BMP180;59249;59.736;30.568;2023-04-01T13:00:25;100207.00;;;2.60
73937;BMP180;59249;59.736;30.568;2023-04-01T13:03:23;100202.00;;;2.40
73937;BMP180;59249;59.736;30.568;2023-04-01T13:06:32;100209.00;;;2.30
73937;BMP180;59249;59.736;30.568;2023-04-01T13:09:51;100209.00;;;2.30
73937;BMP180;59249;59.736;30.568;2023-04-01T13:13:04;100221.00;;;2.30
73937;BMP180;59249;59.736;30.568;2023-04-01T13:16:33;100214.00;;;2.20
73937;BMP180;59249;59.736;30.568;2023-04-01T13:19:26;100226.00;;;2.10
73937;BMP180;59249;59.736;30.568;2023-04-01T13:22:06;100229.00;;;2.10
73937;BMP180;59249;59.736;30.568;2023-04-01T13:24:45;100228.00;;;2.10
73937;BMP180;59249;59.736;30.568;2023-04-01T13:27:30;100225.00;;;2.10
73937;BMP180;59249;59.736;30.568;2023-04-01T13:30:27;100238.00;;;1.80
73937;BMP180;59249;59.736;30.568;2023-04-01T13:33:25;100243.00;;;1.80
73937;BMP180;59249;59.736;30.568;2023-04-01T13:36:24;100235.00;;;1.60
73937;BMP180;59249;59.736;30.568;2023-04-01T13:39:27;100245.00;;;1.50
73937;BMP180;59249;59.736;30.568;2023-04-01T13:42:23;100252.00;;;1.50
73937;BMP180;59249;59.736;30.568;2023-04-01T13:45:02;100256.00;;;1.50
73937;BMP180;59249;59.736;30.568;2023-04-01T13:48:15;100258.00;;;1.30
73937;BMP180;59249;59.736;30.568;2023-04-01T13:51:22;100265.00;;;1.40
73937;BMP180;59249;59.736;30.568;2023-04-01T13:57:47;100265.00;;;1.50
73937;BMP180;59249;59.736;30.568;2023-04-01T14:01:00;100271.00;;;1.50
73937;BMP180;59249;59.736;30.568;2023-04-01T14:04:02;100279.00;;;1.50
73937;BMP180;59249;59.736;30.568;2023-04-01T14:07:08;100290.00;;;1.70
73937;BMP180;59249;59.736;30.568;2023-04-01T14:10:08;100284.00;;;1.40
73937;BMP180;59249;59.736;30.568;2023-04-01T14:12:57;100285.00;;;1.50
73937;BMP180;59249;59.736;30.568;2023-04-01T14:15:51;100288.00;;;1.40
73937;BMP180;59249;59.736;30.568;2023-04-01T14:18:48;100298.00;;;1.50
73937;BMP180;59249;59.736;30.568;2023-04-01T14:21:40;100295.00;;;1.50
73937;BMP180;59249;59.736;30.568;2023-04-01T14:24:32;100304.00;;;1.50
73937;BMP180;59249;59.736;30.568;2023-04-01T14:27:30;100310.00;;;1.30
73937;BMP180;59249;59.736;30.568;2023-04-01T14:30:33;100319.00;;;1.30
73937;BMP180;59249;59.736;30.568;2023-04-01T14:33:31;100322.00;;;1.30
73937;BMP180;59249;59.736;30.568;2023-04-01T14:36:32;100324.00;;;1.20
73937;BMP180;59249;59.736;30.568;2023-04-01T14:39:32;100318.00;;;1.30
73937;BMP180;59249;59.736;30.568;2023-04-01T14:42:33;100322.00;;;1.30
73937;BMP180;59249;59.736;30.568;2023-04-01T14:45:27;100339.00;;;1.30
73937;BMP180;59249;59.736;30.568;2023-04-01T14:48:56;100326.00;;;1.30
73937;BMP180;59249;59.736;30.568;2023-04-01T14:51:41;100338.00;;;1.30
73937;BMP180;59249;59.736;30.568;2023-04-01T14:54:14;100334.00;;;1.40
73937;BMP180;59249;59.736;30.568;2023-04-01T14:57:04;100335.00;;;1.40
73937;BMP180;59249;59.736;30.568;2023-04-01T14:59:46;100341.00;;;1.40
73937;BMP180;59249;59.736;30.568;2023-04-01T15:03:02;100340.00;;;1.30
73937;BMP180;59249;59.736;30.568;2023-04-01T15:05:49;100346.00;;;1.30
73937;BMP180;59249;59.736;30.568;2023-04-01T15:08:25;100341.00;;;1.30
73937;BMP180;59249;59.736;30.568;2023-04-01T15:11:32;100338.00;;;1.30
73937;BMP180;59249;59.736;30.568;2023-04-01T15:14:35;100341.00;;;1.20
73937;BMP180;59249;59.736;30.568;2023-04-01T15:17:36;100342.00;;;1.10
73937;BMP180;59249;59.736;30.568;2023-04-01T15:21:04;100358.00;;;1.20
73937;BMP180;59249;59.736;30.568;2023-04-01T15:24:07;100336.00;;;1.00
73937;BMP180;59249;59.736;30.568;2023-04-01T15:27:07;100347.00;;;1.10
73937;BMP180;59249;59.736;30.568;2023-04-01T15:30:00;100362.00;;;1.10
73937;BMP180;59249;59.736;30.568;2023-04-01T15:32:55;100364.00;;;1.00
73937;BMP180;59249;59.736;30.568;2023-04-01T15:35:43;100365.00;;;1.00
73937;BMP180;59249;59.736;30.568;2023-04-01T15:38:30;100385.00;;;1.10
73937;BMP180;59249;59.736;30.568;2023-04-01T15:41:10;100392.00;;;1.30
73937;BMP180;59249;59.736;30.568;2023-04-01T15:43:47;100398.00;;;1.30
73937;BMP180;59249;59.736;30.568;2023-04-01T15:46:43;100401.00;;;1.40
73937;BMP180;59249;59.736;30.568;2023-04-01T15:49:27;100403.00;;;1.30
73937;BMP180;59249;59.736;30.568;2023-04-01T15:52:18;100398.00;;;1.20
73937;BMP180;59249;59.736;30.568;2023-04-01T15:55:17;100392.00;;;1.10
73937;BMP180;59249;59.736;30.568;2023-04-01T15:58:26;100398.00;;;1.00
73937;BMP180;59249;59.736;30.568;2023-04-01T16:01:15;100396.00;;;1.00
73937;BMP180;59249;59.736;30.568;2023-04-01T16:04:13;100400.00;;;1.00
73937;BMP180;59249;59.736;30.568;2023-04-01T16:07:17;100416.00;;;1.10
73937;BMP180;59249;59.736;30.568;2023-04-01T16:10:09;100416.00;;;1.10
73937;BMP180;59249;59.736;30.568;2023-04-01T16:15:57;100430.00;;;1.10
73937;BMP180;59249;59.736;30.568;2023-04-01T16:18:54;100436.00;;;1.10
73937;BMP180;59249;59.736;30.568;2023-04-01T16:21:51;100441.00;;;1.10
73937;BMP180;59249;59.736;30.568;2023-04-01T16:24:35;100441.00;;;1.00
73937;BMP180;59249;59.736;30.568;2023-04-01T16:27:13;100440.00;;;1.00
73937;BMP180;59249;59.736;30.568;2023-04-01T16:29:51;100445.00;;;1.00
73937;BMP180;59249;59.736;30.568;2023-04-01T16:32:37;100451.00;;;1.00
73937;BMP180;59249;59.736;30.568;2023-04-01T16:35:34;100448.00;;;1.00
73937;BMP180;59249;59.736;30.568;2023-04-01T16:38:18;100444.00;;;0.90
73937;BMP180;59249;59.736;30.568;2023-04-01T16:41:17;100455.00;;;0.90
73937;BMP180;59249;59.736;30.568;2023-04-01T16:43:56;100456.00;;;1.00
73937;BMP180;59249;59.736;30.568;2023-04-01T16:46:38;100440.00;;;0.80
73937;BMP180;59249;59.736;30.568;2023-04-01T16:49:31;100458.00;;;0.80
73937;BMP180;59249;59.736;30.568;2023-04-01T16:52:16;100455.00;;;0.90
73937;BMP180;59249;59.736;30.568;2023-04-01T16:55:15;100455.00;;;0.70
73937;BMP180;59249;59.736;30.568;2023-04-01T16:57:50;100464.00;;;0.80
73937;BMP180;59249;59.736;30.568;2023-04-01T17:00:25;100466.00;;;0.70
73937;BMP180;59249;59.736;30.568;2023-04-01T17:03:03;100476.00;;;0.70
73937;BMP180;59249;59.736;30.568;2023-04-01T17:06:24;100489.00;;;0.70
73937;BMP180;59249;59.736;30.568;2023-04-01T17:09:16;100485.00;;;0.70
73937;BMP180;59249;59.736;30.568;2023-04-01T17:12:11;100495.00;;;0.70
73937;BMP180;59249;59.736;30.568;2023-04-01T17:14:58;100494.00;;;0.60
73937;BMP180;59249;59.736;30.568;2023-04-01T17:17:36;100489.00;;;0.60
73937;BMP180;59249;59.736;30.568;2023-04-01T17:20:31;100493.00;;;0.60
73937;BMP180;59249;59.736;30.568;2023-04-01T17:23:18;100498.00;;;0.70
73937;BMP180;59249;59.736;30.568;2023-04-01T17:26:17;100499.00;;;0.70
73937;BMP180;59249;59.736;30.568;2023-04-01T17:29:01;100505.00;;;0.70
73937;BMP180;59249;59.736;30.568;2023-04-01T17:31:52;100510.00;;;0.70
73937;BMP180;59249;59.736;30.568;2023-04-01T17:34:44;100518.00;;;0.80
73937;BMP180;59249;59.736;30.568;2023-04-01T17:37:41;100511.00;;;0.70